createdAt,value
2022-09-06T00:01:11.556Z,2.08
2022-09-06T00:04:15.540Z,1.40
2022-09-06T00:07:18.024Z,1.50
2022-09-06T00:10:20.777Z,1.90
2022-09-06T00:13:23.190Z,1.63
2022-09-06T00:16:30.155Z,1.77
2022-09-06T00:19:32.822Z,1.48
2022-09-06T00:22:37.109Z,1.80
2022-09-06T00:25:39.233Z,1.50
2022-09-06T00:28:42.188Z,1.48
2022-09-06T00:31:45.669Z,1.73
2022-09-06T00:34:48.201Z,1.60
2022-09-06T00:37:51.480Z,1.80
2022-09-06T00:43:56.906Z,1.50
2022-09-06T00:46:59.617Z,1.40
2022-09-06T00:50:03.230Z,1.60
2022-09-06T00:53:06.006Z,1.92
2022-09-06T00:56:08.251Z,1.25
2022-09-06T00:59:11.157Z,1.80
2022-09-06T01:02:13.462Z,1.60
2022-09-06T01:05:17.050Z,1.52
2022-09-06T01:08:31.341Z,1.70
2022-09-06T01:11:41.677Z,1.52
2022-09-06T01:14:56.016Z,1.30
2022-09-06T01:18:31.751Z,1.63
2022-09-06T01:21:40.163Z,1.15
2022-09-06T01:25:14.141Z,1.40
2022-09-06T01:28:37.681Z,1.38
2022-09-06T01:31:55.101Z,1.30
2022-09-06T01:35:32.277Z,1.58
2022-09-06T01:38:36.018Z,1.95
2022-09-06T01:41:38.191Z,1.80
2022-09-06T01:44:45.824Z,2.10
2022-09-06T01:47:56.761Z,2.50
2022-09-06T01:51:19.792Z,1.73
2022-09-06T01:54:24.900Z,1.67
2022-09-06T01:57:53.112Z,1.60
2022-09-06T02:01:04.994Z,1.40
2022-09-06T02:04:12.955Z,1.60
2022-09-06T02:07:26.715Z,1.25
2022-09-06T02:10:36.737Z,1.35
2022-09-06T02:13:45.597Z,1.48
2022-09-06T02:16:51.239Z,1.40
2022-09-06T02:20:02.639Z,1.10
2022-09-06T02:23:08.796Z,1.10
2022-09-06T02:26:27.680Z,1.95
2022-09-06T02:29:30.311Z,1.30
2022-09-06T02:32:37.635Z,1.42
2022-09-06T02:35:49.812Z,1.50
2022-09-06T02:38:51.954Z,1.35
2022-09-06T02:41:55.245Z,1.38
2022-09-06T02:44:58.321Z,1.40
2022-09-06T02:48:01.184Z,1.65
2022-09-06T02:51:07.447Z,3.60
2022-09-06T02:54:09.944Z,3.90
2022-09-06T02:57:12.840Z,4.25
2022-09-06T03:00:15.389Z,2.55
2022-09-06T03:03:17.747Z,3.85
2022-09-06T03:06:20.267Z,2.08
2022-09-06T03:09:22.598Z,4.50
2022-09-06T03:12:25.079Z,5.13
2022-09-06T03:15:27.110Z,2.33
2022-09-06T03:18:31.063Z,2.95
2022-09-06T03:21:33.245Z,2.30
2022-09-06T03:24:35.517Z,3.30
2022-09-06T03:27:38.492Z,4.80
2022-09-06T03:30:44.798Z,2.47
2022-09-06T03:33:47.026Z,1.25
2022-09-06T03:36:49.401Z,1.40
2022-09-06T03:39:51.724Z,1.58
2022-09-06T03:42:54.314Z,1.40
2022-09-06T03:45:58.045Z,1.33
2022-09-06T03:49:02.096Z,1.45
2022-09-06T03:52:04.494Z,1.40
2022-09-06T03:55:08.064Z,1.20
2022-09-06T03:58:10.095Z,1.50
2022-09-06T04:01:13.720Z,1.27
2022-09-06T04:04:16.489Z,1.55
2022-09-06T04:07:19.005Z,1.30
2022-09-06T04:10:21.250Z,1.55
2022-09-06T04:13:25.577Z,1.33
2022-09-06T04:16:28.006Z,1.20
2022-09-06T04:19:30.369Z,1.33
2022-09-06T04:22:32.748Z,1.20
2022-09-06T04:25:35.354Z,1.50
2022-09-06T04:28:37.625Z,1.10
2022-09-06T04:31:40.320Z,1.70
2022-09-06T04:34:42.363Z,1.20
2022-09-06T04:37:45.180Z,1.50
2022-09-06T04:40:47.455Z,1.27
2022-09-06T04:43:55.888Z,1.35
2022-09-06T04:47:15.604Z,1.20
2022-09-06T04:50:18.979Z,1.20
2022-09-06T04:53:23.877Z,1.27
2022-09-06T04:56:27.122Z,1.13
2022-09-06T04:59:29.336Z,1.17
2022-09-06T05:02:32.015Z,0.90
2022-09-06T05:05:34.243Z,0.90
2022-09-06T05:08:39.365Z,1.20
2022-09-06T05:11:41.855Z,1.10
2022-09-06T05:14:44.338Z,1.55
2022-09-06T05:17:46.749Z,1.20
2022-09-06T05:20:53.929Z,1.20
2022-09-06T05:23:58.633Z,1.45
2022-09-06T05:27:04.060Z,1.27
2022-09-06T05:30:06.649Z,1.27
2022-09-06T05:33:10.740Z,1.20
2022-09-06T05:36:13.236Z,1.38
2022-09-06T05:39:15.896Z,1.27
2022-09-06T05:42:19.554Z,1.10
2022-09-06T05:48:24.473Z,1.10
2022-09-06T05:51:27.350Z,1.25
2022-09-06T05:54:29.478Z,1.38
2022-09-06T05:57:32.198Z,2.05
2022-09-06T06:00:34.989Z,1.45
2022-09-06T06:03:37.850Z,1.03
2022-09-06T06:06:40.091Z,1.10
2022-09-06T06:09:42.826Z,1.20
2022-09-06T06:12:45.371Z,1.33
2022-09-06T06:15:47.892Z,1.25
2022-09-06T06:18:52.526Z,1.27
2022-09-06T06:21:56.546Z,1.10
2022-09-06T06:24:59.756Z,1.10
2022-09-06T06:28:02.788Z,1.50
2022-09-06T06:31:06.819Z,1.30
2022-09-06T06:34:09.972Z,1.30
2022-09-06T06:37:12.099Z,1.40
2022-09-06T06:40:14.746Z,1.50
2022-09-06T06:43:17.862Z,1.30
2022-09-06T06:46:25.521Z,2.38
2022-09-06T06:49:28.871Z,1.80
2022-09-06T06:52:32.101Z,1.95
2022-09-06T06:55:34.729Z,1.83
2022-09-06T06:58:37.071Z,1.60
2022-09-06T07:01:40.431Z,1.98
2022-09-06T07:07:45.771Z,1.70
2022-09-06T07:10:48.107Z,1.88
2022-09-06T07:13:50.681Z,1.90
2022-09-06T07:16:58.603Z,1.52
2022-09-06T07:20:16.504Z,1.58
2022-09-06T07:26:42.254Z,2.83
2022-09-06T07:29:44.769Z,1.67
2022-09-06T07:32:47.010Z,2.65
2022-09-06T07:36:01.325Z,1.80
2022-09-06T07:39:04.061Z,2.45
2022-09-06T07:42:06.783Z,2.10
2022-09-06T07:45:09.810Z,3.50
2022-09-06T07:51:18.950Z,2.58
2022-09-06T07:54:30.966Z,2.72
2022-09-06T07:57:33.799Z,2.58
2022-09-06T08:00:39.040Z,2.55
2022-09-06T08:03:41.415Z,3.28
2022-09-06T08:10:17.060Z,2.10
2022-09-06T08:13:20.890Z,2.20
2022-09-06T08:16:25.445Z,2.60
2022-09-06T08:19:28.291Z,3.65
2022-09-06T08:22:34.267Z,2.65
2022-09-06T08:25:36.673Z,4.60
2022-09-06T08:28:39.054Z,3.47
2022-09-06T08:31:43.589Z,3.80
2022-09-06T08:34:45.895Z,3.03
2022-09-06T08:37:48.498Z,2.88
2022-09-06T08:40:52.739Z,3.45
2022-09-06T08:47:21.747Z,3.45
2022-09-06T08:50:26.828Z,2.90
2022-09-06T08:53:29.980Z,1.88
2022-09-06T08:56:39.942Z,1.35
2022-09-06T08:59:43.270Z,1.70
2022-09-06T09:02:52.068Z,1.50
2022-09-06T09:05:54.971Z,1.42
2022-09-06T09:09:06.037Z,1.50
2022-09-06T09:12:12.408Z,1.20
2022-09-06T09:15:19.043Z,1.40
2022-09-06T09:18:26.814Z,1.30
2022-09-06T09:21:34.763Z,1.50
2022-09-06T09:24:37.835Z,1.23
2022-09-06T09:27:41.187Z,1.35
2022-09-06T09:31:02.035Z,1.20
2022-09-06T09:34:07.694Z,1.15
2022-09-06T09:41:06.031Z,1.52
2022-09-06T09:44:16.479Z,1.45
2022-09-06T09:47:30.480Z,1.42
2022-09-06T09:50:35.614Z,1.45
2022-09-06T09:53:51.575Z,1.30
2022-09-06T09:56:54.125Z,1.33
2022-09-06T10:00:04.839Z,1.30
2022-09-06T10:03:19.242Z,1.83
2022-09-06T10:09:58.881Z,1.38
2022-09-06T10:13:22.032Z,1.73
2022-09-06T10:16:43.805Z,1.20
2022-09-06T10:19:54.343Z,1.60
2022-09-06T10:23:09.812Z,1.25
2022-09-06T10:26:37.137Z,1.27
2022-09-06T10:29:56.279Z,1.33
2022-09-06T10:33:42.384Z,1.20
2022-09-06T10:36:57.999Z,1.30
2022-09-06T10:40:28.043Z,1.60
2022-09-06T10:43:44.947Z,1.20
2022-09-06T10:46:50.935Z,1.17
2022-09-06T10:49:59.099Z,1.35
2022-09-06T10:53:13.139Z,1.20
2022-09-06T10:56:27.748Z,1.40
2022-09-06T10:59:39.259Z,1.45
2022-09-06T11:06:31.145Z,3.50
2022-09-06T11:09:45.198Z,3.05
2022-09-06T11:13:18.691Z,2.58
2022-09-06T11:16:39.417Z,3.25
2022-09-06T11:20:04.044Z,2.20
2022-09-06T11:23:34.940Z,2.10
2022-09-06T11:26:59.390Z,3.30
2022-09-06T11:30:08.583Z,3.85
2022-09-06T11:33:19.688Z,2.28
2022-09-06T11:36:44.904Z,2.85
2022-09-06T11:40:30.241Z,2.72
2022-09-06T11:46:54.966Z,2.78
2022-09-06T11:49:57.272Z,2.20
2022-09-06T11:53:15.840Z,2.33
2022-09-06T11:56:35.654Z,2.75
2022-09-06T12:00:07.161Z,3.38
2022-09-06T12:07:04.047Z,3.17
2022-09-06T12:10:31.058Z,2.60
2022-09-06T12:13:48.047Z,2.60
2022-09-06T12:16:56.946Z,2.10
2022-09-06T12:20:07.229Z,2.85
2022-09-06T12:23:31.005Z,3.50
2022-09-06T12:27:08.521Z,3.58
2022-09-06T12:30:14.589Z,2.83
2022-09-06T12:33:33.065Z,2.17
2022-09-06T12:36:36.430Z,3.22
2022-09-06T12:39:40.567Z,3.10
2022-09-06T12:42:46.770Z,2.40
2022-09-06T12:45:52.030Z,2.65
2022-09-06T12:49:02.321Z,2.85
2022-09-06T12:52:13.662Z,2.00
2022-09-06T12:55:24.146Z,2.22
2022-09-06T12:58:32.572Z,2.55
2022-09-06T13:01:37.534Z,2.47
2022-09-06T13:05:08.214Z,1.73
2022-09-06T13:08:19.174Z,3.08
2022-09-06T13:11:46.351Z,2.85
2022-09-06T13:14:54.222Z,1.70
2022-09-06T13:18:24.188Z,1.50
2022-09-06T13:21:33.726Z,1.42
2022-09-06T13:24:36.975Z,1.35
2022-09-06T13:27:46.537Z,1.60
2022-09-06T13:31:05.411Z,1.77
2022-09-06T13:34:08.863Z,1.92
2022-09-06T13:37:12.392Z,1.55
2022-09-06T13:40:53.875Z,1.70
2022-09-06T13:44:17.987Z,1.40
2022-09-06T13:47:20.910Z,1.60
2022-09-06T13:50:28.335Z,1.48
2022-09-06T13:53:32.144Z,1.60
2022-09-06T13:56:35.660Z,1.60
2022-09-06T13:59:38.527Z,1.77
2022-09-06T14:02:42.216Z,1.52
2022-09-06T14:05:46.281Z,1.60
2022-09-06T14:09:06.254Z,1.90
2022-09-06T14:12:12.327Z,1.77
2022-09-06T14:15:16.490Z,1.63
2022-09-06T14:18:19.448Z,1.70
2022-09-06T14:21:21.945Z,1.90
2022-09-06T14:24:24.298Z,1.70
2022-09-06T14:27:27.954Z,1.42
2022-09-06T14:30:33.318Z,1.60
2022-09-06T14:33:36.684Z,1.70
2022-09-06T14:36:39.740Z,1.63
2022-09-06T14:39:43.095Z,1.85
2022-09-06T14:42:50.405Z,1.40
2022-09-06T14:45:53.410Z,1.70
2022-09-06T14:49:04.384Z,1.60
2022-09-06T14:52:07.833Z,1.92
2022-09-06T14:55:10.603Z,1.80
2022-09-06T14:58:15.554Z,1.60
2022-09-06T15:01:24.599Z,1.77
2022-09-06T15:04:30.038Z,1.65
2022-09-06T15:07:33.245Z,1.98
2022-09-06T15:10:36.459Z,1.45
2022-09-06T15:13:44.508Z,1.83
2022-09-06T15:16:55.284Z,1.73
2022-09-06T15:19:59.102Z,1.90
2022-09-06T15:26:27.897Z,2.08
2022-09-06T15:29:32.005Z,1.80
2022-09-06T15:32:35.242Z,1.63
2022-09-06T15:35:42.202Z,1.40
2022-09-06T15:38:49.813Z,1.85
2022-09-06T15:41:57.168Z,2.05
2022-09-06T15:45:02.611Z,1.65
2022-09-06T15:48:07.359Z,1.75
2022-09-06T15:51:13.001Z,1.70
2022-09-06T15:54:40.574Z,1.60
2022-09-06T15:57:44.384Z,1.52
2022-09-06T16:00:51.075Z,1.58
2022-09-06T16:04:08.247Z,2.05
2022-09-06T16:07:13.847Z,1.75
2022-09-06T16:10:17.435Z,1.63
2022-09-06T16:13:21.248Z,1.73
2022-09-06T16:16:25.106Z,1.35
2022-09-06T16:19:27.565Z,1.63
2022-09-06T16:22:31.243Z,1.83
2022-09-06T16:25:35.466Z,1.55
2022-09-06T16:28:39.050Z,1.63
2022-09-06T16:31:43.160Z,1.85
2022-09-06T16:34:46.415Z,1.60
2022-09-06T16:37:49.619Z,1.55
2022-09-06T16:40:53.351Z,1.77
2022-09-06T16:43:57.365Z,1.75
2022-09-06T16:47:04.673Z,1.40
2022-09-06T16:50:07.497Z,1.45
2022-09-06T16:53:09.909Z,1.70
2022-09-06T16:56:16.314Z,1.13
2022-09-06T16:59:19.391Z,1.90
2022-09-06T17:02:24.467Z,1.70
2022-09-06T17:05:27.769Z,1.52
2022-09-06T17:08:33.680Z,1.40
2022-09-06T17:11:38.867Z,1.10
2022-09-06T17:14:41.709Z,1.13
2022-09-06T17:17:44.740Z,1.40
2022-09-06T17:21:08.274Z,1.20
2022-09-06T17:24:10.909Z,1.60
2022-09-06T17:27:13.574Z,1.40
2022-09-06T17:30:16.214Z,1.33
2022-09-06T17:33:21.832Z,1.50
2022-09-06T17:36:30.608Z,1.40
2022-09-06T17:39:33.911Z,1.38
2022-09-06T17:42:37.604Z,1.17
2022-09-06T17:45:47.257Z,1.42
2022-09-06T17:48:50.590Z,1.50
2022-09-06T17:51:53.848Z,1.67
2022-09-06T17:54:57.297Z,1.40
2022-09-06T17:58:06.857Z,1.17
2022-09-06T18:01:14.606Z,1.50
2022-09-06T18:04:19.484Z,1.58
2022-09-06T18:07:22.583Z,1.52
2022-09-06T18:10:25.656Z,1.57
2022-09-06T18:13:27.981Z,1.40
2022-09-06T18:16:35.352Z,1.42
2022-09-06T18:19:38.965Z,1.58
2022-09-06T18:22:45.294Z,1.25
2022-09-06T18:26:01.633Z,1.42
2022-09-06T18:29:13.234Z,2.10
2022-09-06T18:32:16.676Z,1.52
2022-09-06T18:35:19.806Z,1.60
2022-09-06T18:38:28.086Z,1.65
2022-09-06T18:41:54.835Z,1.88
2022-09-06T18:44:59.767Z,1.75
2022-09-06T18:48:03.011Z,1.17
2022-09-06T18:51:17.181Z,1.73
2022-09-06T18:54:27.527Z,1.80
2022-09-06T18:57:32.074Z,2.15
2022-09-06T19:00:38.321Z,2.30
2022-09-06T19:03:43.483Z,1.75
2022-09-06T19:06:48.532Z,2.33
2022-09-06T19:09:53.157Z,1.85
2022-09-06T19:13:01.510Z,2.42
2022-09-06T19:16:08.561Z,1.85
2022-09-06T19:19:15.006Z,2.40
2022-09-06T19:22:19.728Z,2.35
2022-09-06T19:25:27.177Z,1.77
2022-09-06T19:28:34.238Z,1.95
2022-09-06T19:31:40.532Z,2.30
2022-09-06T19:34:44.470Z,2.75
2022-09-06T19:37:50.266Z,2.58
2022-09-06T19:40:55.250Z,2.60
2022-09-06T19:50:11.109Z,1.80
2022-09-06T19:53:17.481Z,2.35
2022-09-06T19:56:35.173Z,1.75
2022-09-06T19:59:41.759Z,1.73
2022-09-06T20:02:46.083Z,1.45
2022-09-06T20:05:51.512Z,1.98
2022-09-06T20:09:03.313Z,1.70
2022-09-06T20:12:09.099Z,1.60
2022-09-06T20:15:14.986Z,1.52
2022-09-06T20:18:22.733Z,1.45
2022-09-06T20:21:30.187Z,1.35
2022-09-06T20:24:37.065Z,1.50
2022-09-06T20:27:44.696Z,1.50
2022-09-06T20:30:53.711Z,1.42
2022-09-06T20:34:08.556Z,1.60
2022-09-06T20:37:16.391Z,1.63
2022-09-06T20:40:23.140Z,1.90
2022-09-06T20:43:29.246Z,1.90
2022-09-06T20:46:37.602Z,1.90
2022-09-06T20:49:44.429Z,2.10
2022-09-06T20:52:54.533Z,2.63
2022-09-06T20:56:01.206Z,2.30
2022-09-06T20:59:08.315Z,1.58
2022-09-06T21:02:15.126Z,1.77
2022-09-06T21:05:24.741Z,1.58
2022-09-06T21:08:34.104Z,1.95
2022-09-06T21:11:42.668Z,2.05
2022-09-06T21:14:47.508Z,1.52
2022-09-06T21:17:51.280Z,1.65
2022-09-06T21:21:05.503Z,1.92
2022-09-06T21:24:09.070Z,1.80
2022-09-06T21:27:12.827Z,1.33
2022-09-06T21:30:18.294Z,1.73
2022-09-06T21:36:33.258Z,1.60
2022-09-06T21:39:35.831Z,1.60
2022-09-06T21:42:40.352Z,1.38
2022-09-06T21:45:44.937Z,1.20
2022-09-06T21:48:49.943Z,1.30
2022-09-06T21:54:54.911Z,1.60
2022-09-06T21:57:57.151Z,1.48
2022-09-06T22:01:04.967Z,2.10
2022-09-06T22:04:07.760Z,1.58
2022-09-06T22:07:12.273Z,1.85
2022-09-06T22:10:14.844Z,1.65
2022-09-06T22:13:19.667Z,1.92
2022-09-06T22:16:22.985Z,1.98
2022-09-06T22:19:25.994Z,2.10
2022-09-06T22:22:34.123Z,2.33
2022-09-06T22:25:36.987Z,3.10
2022-09-06T22:28:40.731Z,3.60
2022-09-06T22:31:43.897Z,2.10
2022-09-06T22:34:46.257Z,2.78
2022-09-06T22:37:50.003Z,2.97
2022-09-06T22:40:52.102Z,2.58
2022-09-06T22:43:54.924Z,1.80
2022-09-06T22:46:57.995Z,2.70
2022-09-06T22:50:00.481Z,2.43
2022-09-06T22:53:02.990Z,3.17
2022-09-06T22:56:07.271Z,3.13
2022-09-06T22:59:09.712Z,2.90
2022-09-06T23:02:12.722Z,3.58
2022-09-06T23:05:14.988Z,2.72
2022-09-06T23:08:17.482Z,3.45
2022-09-06T23:11:21.270Z,4.97
2022-09-06T23:14:23.914Z,4.55
2022-09-06T23:17:28.106Z,4.57
2022-09-06T23:23:33.948Z,3.88
2022-09-06T23:26:37.568Z,4.95
2022-09-06T23:29:41.282Z,4.97
2022-09-06T23:32:43.536Z,3.00
2022-09-06T23:35:46.290Z,3.80
2022-09-06T23:38:48.965Z,3.03
2022-09-06T23:41:50.958Z,2.80
2022-09-06T23:44:57.756Z,2.95
2022-09-06T23:47:59.914Z,2.30
2022-09-06T23:51:02.274Z,2.55
2022-09-06T23:54:05.882Z,2.83
2022-09-06T23:57:08.429Z,2.10
